Time;durP1;ratioP1;P1;durP2;ratioP2;P2;SDS_P1;SDS_P2;PMS_P1;PMS_P2;Temp;Humidity;BMP_temperature;BMP_pressure;BME280_temperature;BME280_humidity;BME280_pressure;Samples;Min_cycle;Max_cycle;Signal;HPM_P1;HPM_P2
2021/12/08 00:01:34;;;;;;;0.40;0.30;;;;;;;3.90;100.00;93946.19;5132480;27;20499;-53
2021/12/08 00:04:03;;;;;;;0.30;0.20;;;;;;;3.83;100.00;93955.09;5133304;27;20457;-53
2021/12/08 00:06:31;;;;;;;0.30;0.20;;;;;;;3.43;100.00;93897.41;5132322;27;20477;-53
2021/12/08 00:09:17;;;;;;;0.30;0.20;;;;;;;3.39;100.00;93922.50;5132505;28;20427;-53
2021/12/08 00:14:32;;;;;;;0.30;0.20;;;;;;;3.89;100.00;93973.44;5132852;28;20514;-52
2021/12/08 00:17:01;;;;;;;0.30;0.20;;;;;;;4.30;100.00;93975.81;5132828;28;20460;-52
2021/12/08 00:19:30;;;;;;;0.30;0.20;;;;;;;3.84;100.00;93976.84;5132542;28;20422;-52
2021/12/08 00:21:58;;;;;;;0.30;0.20;;;;;;;4.23;100.00;93980.53;5132982;28;20824;-52
2021/12/08 00:24:27;;;;;;;0.30;0.20;;;;;;;3.78;100.00;93989.16;5132711;28;20422;-52
2021/12/08 00:26:57;;;;;;;0.30;0.20;;;;;;;3.79;100.00;93993.31;5132554;28;20483;-52
2021/12/08 00:29:25;;;;;;;0.30;0.20;;;;;;;3.66;100.00;93988.59;5132659;28;20970;-53
2021/12/08 00:31:54;;;;;;;0.30;0.20;;;;;;;3.68;100.00;93991.75;5136357;27;20481;-52
2021/12/08 00:34:22;;;;;;;0.30;0.20;;;;;;;3.66;100.00;93993.06;5136839;27;20513;-52
2021/12/08 00:36:55;;;;;;;0.30;0.20;;;;;;;3.41;100.00;93992.97;5136633;27;20467;-52
2021/12/08 00:39:23;;;;;;;0.30;0.20;;;;;;;3.77;100.00;93995.41;5136369;27;20473;-52
2021/12/08 00:41:52;;;;;;;0.30;0.20;;;;;;;4.01;100.00;93987.09;5136933;27;20546;-52
2021/12/08 00:44:22;;;;;;;0.30;0.20;;;;;;;4.38;100.00;93995.47;5136608;27;20985;-52
2021/12/08 00:46:50;;;;;;;0.30;0.20;;;;;;;4.07;100.00;94001.78;5136185;27;20438;-53
2021/12/08 00:49:18;;;;;;;0.37;0.27;;;;;;;3.77;100.00;93997.25;5135927;27;20512;-52
2021/12/08 00:51:47;;;;;;;0.30;0.20;;;;;;;4.30;100.00;94004.66;5136480;27;20462;-52
2021/12/08 00:54:16;;;;;;;0.30;0.20;;;;;;;4.19;100.00;94005.72;5136446;27;20465;-53
2021/12/08 00:56:44;;;;;;;0.30;0.20;;;;;;;4.77;100.00;94004.38;5136102;27;20919;-52
2021/12/08 00:59:12;;;;;;;0.30;0.20;;;;;;;4.80;100.00;93990.75;5136384;27;20965;-52
2021/12/08 01:01:42;;;;;;;0.30;0.20;;;;;;;4.86;100.00;93992.28;5136300;27;20544;-52
2021/12/08 01:04:11;;;;;;;0.30;0.20;;;;;;;5.11;100.00;94000.09;5136150;27;20487;-52
2021/12/08 01:06:39;;;;;;;0.30;0.20;;;;;;;5.06;100.00;94000.13;5136866;27;20422;-52
2021/12/08 01:09:08;;;;;;;0.30;0.20;;;;;;;5.02;100.00;93999.09;5136126;27;20509;-52
2021/12/08 01:11:36;;;;;;;0.83;0.83;;;;;;;4.83;100.00;94005.16;5135572;27;20501;-52
2021/12/08 01:14:05;;;;;;;0.30;0.20;;;;;;;4.82;100.00;94014.09;5136225;27;20427;-52
2021/12/08 01:16:34;;;;;;;0.30;0.23;;;;;;;4.48;100.00;94005.97;5135659;27;20462;-52
2021/12/08 01:19:04;;;;;;;0.40;0.20;;;;;;;4.43;100.00;94026.97;5135717;27;20426;-52
2021/12/08 01:21:33;;;;;;;0.30;0.20;;;;;;;4.54;100.00;94015.41;5136109;27;21077;-52
2021/12/08 01:24:02;;;;;;;0.30;0.20;;;;;;;4.26;100.00;94005.44;5135550;27;20438;-52
2021/12/08 01:26:30;;;;;;;0.30;0.20;;;;;;;4.74;100.00;94019.88;5136489;27;20415;-52
2021/12/08 01:28:58;;;;;;;0.30;0.20;;;;;;;5.09;100.00;94009.31;5134630;27;20430;-52
2021/12/08 01:31:28;;;;;;;0.30;0.20;;;;;;;4.79;100.00;94014.59;5135598;27;20457;-52
2021/12/08 01:33:57;;;;;;;0.30;0.20;;;;;;;4.99;100.00;94010.13;5135707;27;20517;-52
2021/12/08 01:36:26;;;;;;;0.30;0.20;;;;;;;5.12;100.00;94027.94;5135933;27;20475;-52
2021/12/08 01:38:55;;;;;;;0.63;0.63;;;;;;;4.71;100.00;94020.38;5135431;27;20485;-52
2021/12/08 01:41:25;;;;;;;0.30;0.30;;;;;;;4.89;100.00;94025.09;5134956;27;21069;-52
2021/12/08 01:46:41;;;;;;;0.30;0.20;;;;;;;4.59;100.00;94020.66;5117492;27;20954;-52
2021/12/08 01:49:10;;;;;;;0.30;0.20;;;;;;;3.94;100.00;93968.19;5135812;27;20906;-52
2021/12/08 01:51:40;;;;;;;0.30;0.20;;;;;;;4.54;100.00;94025.91;5135321;27;20458;-52
2021/12/08 01:54:09;;;;;;;0.30;0.20;;;;;;;4.49;100.00;94031.16;5135401;27;20430;-51
2021/12/08 01:56:38;;;;;;;0.40;0.40;;;;;;;4.51;100.00;94047.44;5135253;27;20486;-51
2021/12/08 01:59:10;;;;;;;0.30;0.20;;;;;;;3.99;100.00;93955.09;5135294;27;20458;-51
2021/12/08 02:01:40;;;;;;;0.30;0.30;;;;;;;4.45;100.00;94040.63;5134918;27;20545;-51
2021/12/08 02:04:10;;;;;;;0.40;0.40;;;;;;;4.67;100.00;94041.13;5135167;27;20474;-51
2021/12/08 02:07:00;;;;;;;0.30;0.20;;;;;;;4.86;100.00;94050.03;5134922;27;20509;-51
2021/12/08 02:09:29;;;;;;;0.30;0.20;;;;;;;4.41;100.00;94053.47;5135172;27;20942;-51
2021/12/08 02:11:58;;;;;;;0.30;0.20;;;;;;;4.36;100.00;94058.69;5134991;27;20430;-51
2021/12/08 02:14:26;;;;;;;0.30;0.20;;;;;;;4.47;100.00;94059.50;5134215;27;20973;-52
2021/12/08 02:16:56;;;;;;;0.30;0.20;;;;;;;4.67;100.00;94070.00;5135262;27;20453;-51
2021/12/08 02:19:25;;;;;;;0.30;0.20;;;;;;;4.43;100.00;94071.53;5134810;27;21060;-51
2021/12/08 02:21:55;;;;;;;0.30;0.20;;;;;;;4.36;100.00;94071.81;5134687;27;20910;-51
2021/12/08 02:24:24;;;;;;;0.30;0.20;;;;;;;2.63;100.00;93822.09;5134057;27;20505;-52
2021/12/08 02:26:54;;;;;;;0.30;0.20;;;;;;;4.10;100.00;94079.91;5134572;27;20430;-52
2021/12/08 02:29:35;;;;;;;0.30;0.20;;;;;;;4.09;100.00;94078.31;5134654;27;20426;-52
2021/12/08 02:32:11;;;;;;;0.30;0.20;;;;;;;4.12;100.00;94078.59;5134867;27;20491;-51
2021/12/08 02:48:45;;;;;;;0.30;0.30;;;;;;;4.03;100.00;94095.06;5134125;27;20536;-52
2021/12/08 02:51:13;;;;;;;0.30;0.20;;;;;;;4.00;100.00;94099.00;5134025;27;20950;-52
2021/12/08 02:53:43;;;;;;;0.30;0.30;;;;;;;3.64;100.00;94045.69;5133107;27;20501;-52
2021/12/08 02:56:12;;;;;;;0.30;0.20;;;;;;;4.02;100.00;94104.00;5133761;27;20423;-52
2021/12/08 02:58:40;;;;;;;0.30;0.20;;;;;;;3.90;100.00;94103.44;5133500;27;20449;-52
2021/12/08 03:01:10;;;;;;;0.30;0.20;;;;;;;3.77;100.00;94097.63;5133982;27;20470;-52
2021/12/08 03:03:39;;;;;;;0.30;0.20;;;;;;;4.07;100.00;94086.47;5133810;27;20468;-52
2021/12/08 03:06:08;;;;;;;0.30;0.20;;;;;;;4.37;100.00;94109.31;5133825;27;20437;-52
2021/12/08 03:08:36;;;;;;;0.30;0.20;;;;;;;3.84;100.00;94100.00;5133462;27;20906;-52
2021/12/08 03:11:06;;;;;;;0.30;0.20;;;;;;;4.27;100.00;94119.81;5133486;27;20423;-52
2021/12/08 03:13:39;;;;;;;1.80;1.70;;;;;;;4.15;100.00;94122.63;5132483;27;20517;-52
2021/12/08 03:16:08;;;;;;;0.30;0.20;;;;;;;4.50;100.00;94125.34;5133282;27;20430;-52
2021/12/08 03:18:38;;;;;;;0.30;0.20;;;;;;;4.37;100.00;94125.84;5132371;27;20462;-52
2021/12/08 03:21:10;;;;;;;0.43;0.40;;;;;;;4.15;100.00;94121.88;5133317;27;20918;-52
2021/12/08 03:23:49;;;;;;;0.30;0.20;;;;;;;4.08;100.00;94131.78;5132923;27;20547;-52
2021/12/08 03:26:26;;;;;;;0.30;0.20;;;;;;;4.48;100.00;94137.13;5133471;27;20418;-52
2021/12/08 03:29:01;;;;;;;0.57;0.53;;;;;;;4.18;100.00;94143.09;5132850;27;20466;-52
2021/12/08 03:31:34;;;;;;;0.30;0.20;;;;;;;4.22;100.00;94135.53;5133682;27;20457;-52
2021/12/08 03:34:03;;;;;;;0.30;0.20;;;;;;;4.38;100.00;94151.03;5132951;27;20483;-52
2021/12/08 03:36:31;;;;;;;0.30;0.20;;;;;;;4.41;100.00;94158.38;5133512;27;20431;-51
2021/12/08 03:39:01;;;;;;;0.30;0.20;;;;;;;4.10;100.00;94161.19;5132763;27;20465;-51
2021/12/08 03:41:33;;;;;;;0.40;0.30;;;;;;;4.01;100.00;94160.88;5132783;27;20789;-51
2021/12/08 03:44:04;;;;;;;0.30;0.20;;;;;;;4.14;100.00;94176.13;5132940;27;20526;-51
2021/12/08 03:46:39;;;;;;;0.30;0.20;;;;;;;4.48;100.00;94161.53;5133448;27;20423;-51
2021/12/08 03:49:11;;;;;;;0.37;0.27;;;;;;;4.24;100.00;94178.00;5132943;27;20944;-51
2021/12/08 03:51:41;;;;;;;0.30;0.20;;;;;;;4.06;100.00;94183.69;5132862;27;20907;-52
2021/12/08 03:54:09;;;;;;;0.30;0.20;;;;;;;4.19;100.00;94189.28;5132826;27;20914;-52
2021/12/08 03:56:40;;;;;;;0.30;0.20;;;;;;;4.05;100.00;94176.91;5132725;27;20465;-52
2021/12/08 03:59:08;;;;;;;0.70;0.63;;;;;;;4.45;100.00;94187.53;5133285;27;20454;-52
2021/12/08 04:01:37;;;;;;;0.30;0.20;;;;;;;4.27;100.00;94182.75;5132384;27;20461;-52
2021/12/08 04:04:08;;;;;;;0.40;0.30;;;;;;;4.45;100.00;94182.28;5133099;27;20577;-51
2021/12/08 04:06:45;;;;;;;0.30;0.20;;;;;;;4.05;100.00;94171.66;5131676;27;20991;-52
2021/12/08 04:09:19;;;;;;;0.40;0.40;;;;;;;4.44;100.00;94194.59;5132951;27;20442;-52
2021/12/08 04:11:49;;;;;;;0.30;0.20;;;;;;;4.39;100.00;94199.81;5133008;28;20423;-52
2021/12/08 04:14:20;;;;;;;0.30;0.20;;;;;;;4.39;100.00;94209.53;5132195;28;20934;-52
2021/12/08 04:16:53;;;;;;;0.30;0.20;;;;;;;3.97;100.00;94146.72;5132663;28;20466;-52
2021/12/08 04:19:22;;;;;;;0.30;0.20;;;;;;;4.24;100.00;94210.25;5132614;28;20454;-52
2021/12/08 04:21:54;;;;;;;0.30;0.20;;;;;;;4.49;100.00;94212.97;5132137;28;20977;-52
2021/12/08 04:24:26;;;;;;;0.30;0.20;;;;;;;4.29;100.00;94215.53;5132241;28;20473;-52
2021/12/08 04:27:01;;;;;;;0.40;0.37;;;;;;;4.39;100.00;94218.19;5132400;28;20462;-52
2021/12/08 04:29:32;;;;;;;0.30;0.20;;;;;;;4.27;100.00;94232.56;5132852;27;20438;-52
2021/12/08 04:32:01;;;;;;;0.30;0.20;;;;;;;4.40;100.00;94227.63;5131685;28;21046;-52
2021/12/08 04:34:37;;;;;;;0.63;0.63;;;;;;;3.90;100.00;94171.59;5131216;28;20509;-52
2021/12/08 04:37:16;;;;;;;0.30;0.20;;;;;;;4.30;100.00;94237.31;5132232;28;20448;-52
2021/12/08 04:39:57;;;;;;;0.30;0.20;;;;;;;4.03;100.00;94247.91;5132145;28;21019;-52
2021/12/08 04:42:40;;;;;;;0.30;0.20;;;;;;;4.05;100.00;94253.69;5132343;27;20422;-52
2021/12/08 04:45:16;;;;;;;0.40;0.40;;;;;;;3.74;100.00;94251.94;5132251;28;20462;-52
2021/12/08 04:48:05;;;;;;;1.57;1.53;;;;;;;3.17;100.00;94176.66;5131915;28;20518;-53
2021/12/08 04:51:02;;;;;;;0.30;0.20;;;;;;;3.85;100.00;94264.84;5132004;28;20430;-52
2021/12/08 04:53:43;;;;;;;0.67;0.67;;;;;;;3.96;100.00;94270.16;5131986;28;21069;-52
2021/12/08 05:02:16;;;;;;;4.07;0.50;;;;;;;3.81;100.00;94287.38;5092747;27;20536;-53
2021/12/08 05:05:00;;;;;;;0.73;0.73;;;;;;;3.91;100.00;94297.13;5132136;27;20527;-53
2021/12/08 05:07:47;;;;;;;0.30;0.23;;;;;;;4.34;100.00;94301.31;5131921;28;20502;-53
2021/12/08 05:10:19;;;;;;;0.63;0.63;;;;;;;4.66;100.00;94304.59;5132434;28;20457;-53
2021/12/08 05:12:50;;;;;;;0.50;0.50;;;;;;;4.81;100.00;94306.47;5132181;28;20786;-53
2021/12/08 05:15:24;;;;;;;1.53;1.53;;;;;;;4.55;100.00;94315.31;5132473;28;20434;-53
2021/12/08 05:17:57;;;;;;;0.30;0.20;;;;;;;4.53;100.00;94318.16;5134687;27;20414;-53
2021/12/08 05:20:32;;;;;;;0.30;0.20;;;;;;;4.72;100.00;94321.94;5135641;27;20942;-53
2021/12/08 05:23:04;;;;;;;0.30;0.20;;;;;;;3.57;100.00;94249.47;5135900;27;20501;-53
2021/12/08 05:25:35;;;;;;;2.10;1.50;;;;;;;4.29;100.00;94330.13;5135541;27;20443;-53
2021/12/08 05:28:07;;;;;;;0.60;0.60;;;;;;;3.82;100.00;94322.22;5135869;27;20884;-53
2021/12/08 05:30:41;;;;;;;1.60;1.60;;;;;;;4.01;100.00;94338.34;5135745;27;20455;-53
2021/12/08 05:33:12;;;;;;;0.47;0.47;;;;;;;3.93;100.00;94341.44;5135695;27;20466;-53
2021/12/08 05:35:44;;;;;;;0.30;0.20;;;;;;;4.10;100.00;94336.84;5135495;27;20450;-53
2021/12/08 05:38:13;;;;;;;0.30;0.23;;;;;;;3.90;100.00;94329.63;5135219;27;20490;-53
2021/12/08 05:40:45;;;;;;;0.40;0.30;;;;;;;3.91;100.00;94346.13;5135190;27;20934;-54
2021/12/08 05:43:14;;;;;;;1.37;1.37;;;;;;;4.08;100.00;94349.38;5135240;27;20513;-53
2021/12/08 05:45:45;;;;;;;0.30;0.20;;;;;;;4.13;100.00;94352.84;5135317;27;20461;-52
2021/12/08 05:48:15;;;;;;;0.60;0.60;;;;;;;4.13;100.00;94357.28;5135293;27;20465;-53
2021/12/08 05:50:47;;;;;;;0.30;0.20;;;;;;;4.18;100.00;94371.22;5134995;27;20419;-53
2021/12/08 05:53:16;;;;;;;0.70;0.70;;;;;;;4.01;100.00;94369.81;5135356;27;20430;-53
2021/12/08 05:55:47;;;;;;;0.40;0.30;;;;;;;3.88;100.00;94372.84;5134997;27;20487;-53
2021/12/08 05:58:16;;;;;;;0.30;0.20;;;;;;;3.99;100.00;94374.50;5134716;27;20478;-53
2021/12/08 06:00:51;;;;;;;0.30;0.20;;;;;;;4.07;100.00;94379.28;5134856;27;20418;-53
2021/12/08 06:03:21;;;;;;;0.30;0.20;;;;;;;3.59;100.00;94382.84;5134816;27;20935;-53
2021/12/08 06:05:51;;;;;;;0.30;0.20;;;;;;;3.79;100.00;94385.63;5135240;27;20434;-53
2021/12/08 06:08:20;;;;;;;0.30;0.20;;;;;;;3.73;100.00;94392.66;5134374;27;20488;-53
2021/12/08 06:10:49;;;;;;;0.40;0.30;;;;;;;3.95;100.00;94395.19;5134420;27;20458;-53
2021/12/08 06:13:19;;;;;;;0.30;0.20;;;;;;;4.01;100.00;94396.00;5134816;27;20427;-51
2021/12/08 06:15:49;;;;;;;0.30;0.20;;;;;;;3.78;100.00;94405.78;5135126;27;20423;-51
2021/12/08 06:18:21;;;;;;;0.30;0.20;;;;;;;4.11;100.00;94411.81;5134281;27;20429;-52
2021/12/08 06:20:50;;;;;;;0.40;0.30;;;;;;;4.05;100.00;94411.00;5135075;27;20426;-52
2021/12/08 06:23:19;;;;;;;0.30;0.20;;;;;;;3.82;100.00;94379.88;5134889;27;20434;-52
2021/12/08 06:25:48;;;;;;;0.40;0.30;;;;;;;4.06;100.00;94411.78;5134487;27;20458;-52
2021/12/08 06:28:16;;;;;;;0.30;0.20;;;;;;;3.52;100.00;94346.34;5133252;27;20434;-52
2021/12/08 06:30:47;;;;;;;0.40;0.33;;;;;;;4.00;100.00;94413.56;5134099;27;20506;-52
2021/12/08 06:33:20;;;;;;;0.30;0.30;;;;;;;4.10;100.00;94424.13;5133826;27;20465;-52
2021/12/08 06:35:52;;;;;;;0.40;0.30;;;;;;;3.93;100.00;94420.06;5133676;27;20456;-52
2021/12/08 06:38:22;;;;;;;0.30;0.20;;;;;;;4.28;100.00;94426.38;5133781;27;20426;-52
2021/12/08 06:40:53;;;;;;;0.60;0.60;;;;;;;4.32;100.00;94429.28;5134009;27;20495;-53
2021/12/08 06:43:25;;;;;;;0.50;0.50;;;;;;;4.34;100.00;94427.22;5133790;27;20458;-52
2021/12/08 06:45:58;;;;;;;0.30;0.20;;;;;;;4.33;100.00;94423.00;5133935;27;20435;-52
2021/12/08 06:48:32;;;;;;;0.30;0.20;;;;;;;4.06;100.00;94446.66;5133574;27;20501;-52
2021/12/08 06:51:04;;;;;;;0.87;0.57;;;;;;;4.08;100.00;94433.28;5133381;27;20458;-52
2021/12/08 06:53:33;;;;;;;1.17;0.93;;;;;;;4.12;100.00;94455.38;5133347;27;20517;-52
2021/12/08 06:56:06;;;;;;;0.30;0.20;;;;;;;4.01;100.00;94457.09;5133405;27;20441;-52
2021/12/08 06:58:37;;;;;;;0.87;0.50;;;;;;;3.79;100.00;94457.16;5133312;27;20458;-53
2021/12/08 07:01:17;;;;;;;0.70;0.40;;;;;;;4.24;100.00;94469.91;5133372;27;20445;-52
2021/12/08 07:04:08;;;;;;;0.40;0.37;;;;;;;5.30;100.00;94461.84;5133366;27;20430;-52
2021/12/08 07:06:47;;;;;;;0.30;0.20;;;;;;;6.31;100.00;94463.69;5134039;27;20431;-52
2021/12/08 07:09:20;;;;;;;1.63;0.47;;;;;;;6.97;100.00;94463.63;5133471;27;20888;-52
2021/12/08 07:11:51;;;;;;;0.30;0.20;;;;;;;8.06;100.00;94475.81;5133364;27;20483;-52
2021/12/08 07:14:21;;;;;;;4.37;0.50;;;;;;;7.40;100.00;94480.59;5133019;27;20423;-52
2021/12/08 07:16:55;;;;;;;0.40;0.30;;;;;;;8.47;97.01;94490.34;5133405;27;20454;-52
2021/12/08 07:19:33;;;;;;;0.40;0.40;;;;;;;9.01;89.08;94479.56;5133425;27;20430;-52
2021/12/08 07:22:05;;;;;;;0.47;0.40;;;;;;;9.56;75.34;94483.47;5133405;27;20477;-52
2021/12/08 07:24:37;;;;;;;0.30;0.20;;;;;;;9.60;73.39;94476.53;5133430;27;20462;-52
2021/12/08 07:27:08;;;;;;;0.40;0.30;;;;;;;10.00;72.69;94485.81;5133406;27;20450;-52
2021/12/08 07:29:40;;;;;;;0.30;0.20;;;;;;;10.39;74.97;94481.06;5133663;27;20884;-52
2021/12/08 07:32:12;;;;;;;0.40;0.40;;;;;;;10.25;67.99;94490.00;5133472;27;20842;-52
2021/12/08 07:34:43;;;;;;;1.03;0.77;;;;;;;9.62;72.20;94494.75;5133074;27;20422;-53
2021/12/08 07:37:14;;;;;;;0.50;0.50;;;;;;;9.48;74.95;94499.97;5133142;27;20426;-53
2021/12/08 07:39:51;;;;;;;3.60;0.40;;;;;;;9.36;70.13;94505.63;5132382;27;21054;-54
2021/12/08 07:42:23;;;;;;;1.73;1.73;;;;;;;9.84;69.15;94510.91;5133387;27;20483;-54
2021/12/08 07:44:54;;;;;;;0.40;0.30;;;;;;;10.35;68.09;94508.41;5132791;27;20482;-54
2021/12/08 07:47:24;;;;;;;0.30;0.30;;;;;;;10.26;65.41;94515.41;5133247;27;20431;-55
2021/12/08 07:50:00;;;;;;;0.40;0.40;;;;;;;10.03;64.29;94520.44;5132555;27;20448;-55
2021/12/08 07:52:33;;;;;;;0.57;0.57;;;;;;;9.17;68.06;94538.34;5132796;27;20469;-55
2021/12/08 07:55:08;;;;;;;0.47;0.47;;;;;;;10.31;67.82;94525.94;5132859;27;20462;-56
2021/12/08 07:57:37;;;;;;;0.40;0.40;;;;;;;10.35;71.86;94476.63;5133148;27;20903;-58
2021/12/08 08:00:10;;;;;;;0.83;0.83;;;;;;;11.45;61.12;94516.41;5132438;27;20430;-58
2021/12/08 08:02:39;;;;;;;0.43;0.30;;;;;;;11.27;59.64;94531.31;5133011;27;20491;-59
2021/12/08 08:05:16;;;;;;;0.40;0.30;;;;;;;11.30;59.00;94530.72;5133146;27;20458;-59
2021/12/08 08:07:47;;;;;;;5.00;1.07;;;;;;;11.06;57.50;94524.75;5132455;27;20862;-59
2021/12/08 08:10:17;;;;;;;0.50;0.50;;;;;;;11.96;55.72;94532.16;5132800;27;20448;-59
2021/12/08 08:12:49;;;;;;;3.00;1.27;;;;;;;11.98;55.71;94540.63;5132601;27;20938;-58
2021/12/08 08:15:21;;;;;;;0.60;0.60;;;;;;;11.65;56.03;94537.25;5132990;27;20426;-58
2021/12/08 08:17:53;;;;;;;0.30;0.20;;;;;;;12.99;64.72;94543.69;5132273;28;20454;-56
2021/12/08 08:20:31;;;;;;;0.40;0.30;;;;;;;13.63;53.87;94542.41;5132580;28;20769;-56
2021/12/08 08:23:01;;;;;;;0.50;0.37;;;;;;;13.33;54.72;94544.72;5132279;28;20430;-56
2021/12/08 08:25:32;;;;;;;1.37;1.37;;;;;;;12.41;52.82;94549.81;5132569;28;20484;-56
2021/12/08 08:28:02;;;;;;;0.60;0.60;;;;;;;11.82;55.17;94548.09;5132638;28;20934;-55
2021/12/08 08:30:34;;;;;;;0.40;0.40;;;;;;;12.62;60.46;94553.56;5132915;27;20418;-56
2021/12/08 08:33:03;;;;;;;0.40;0.20;;;;;;;11.62;56.89;94529.88;5132585;28;20461;-57
2021/12/08 08:35:37;;;;;;;0.57;0.30;;;;;;;11.75;54.59;94546.91;5132396;28;20426;-59
2021/12/08 08:38:12;;;;;;;0.50;0.50;;;;;;;11.36;58.16;94555.28;5132800;28;20426;-59
2021/12/08 08:40:42;;;;;;;0.50;0.50;;;;;;;10.50;58.34;94547.94;5132665;28;20792;-59
2021/12/08 08:43:12;;;;;;;0.80;0.47;;;;;;;9.99;64.25;94540.59;5132144;28;20438;-57
2021/12/08 08:45:44;;;;;;;0.87;0.43;;;;;;;10.52;60.65;94548.44;5132756;28;20462;-58
2021/12/08 08:48:15;;;;;;;0.40;0.30;;;;;;;10.67;63.30;94561.44;5132291;28;20934;-56
2021/12/08 08:50:53;;;;;;;0.40;0.30;;;;;;;11.55;58.90;94563.97;5132369;27;20450;-57
2021/12/08 08:53:25;;;;;;;0.40;0.37;;;;;;;12.00;56.86;94485.34;5136026;27;20491;-59
2021/12/08 08:55:59;;;;;;;0.30;0.20;;;;;;;12.13;54.47;94545.63;5136730;27;20499;-59
2021/12/08 08:58:30;;;;;;;1.40;0.40;;;;;;;12.45;55.86;94544.66;5136221;27;20494;-57
2021/12/08 09:01:02;;;;;;;0.40;0.30;;;;;;;12.82;52.31;94546.25;5136659;27;20418;-57
2021/12/08 09:03:34;;;;;;;0.53;0.50;;;;;;;13.21;49.40;94549.03;5135951;27;20472;-56
2021/12/08 09:06:10;;;;;;;0.70;0.70;;;;;;;13.24;51.42;94549.22;5136175;27;20845;-55
2021/12/08 09:08:41;;;;;;;0.80;0.40;;;;;;;12.74;51.11;94542.44;5135464;27;20434;-54
2021/12/08 09:11:15;;;;;;;0.63;0.63;;;;;;;13.29;49.38;94497.75;5136121;27;20422;-55
2021/12/08 09:13:49;;;;;;;1.03;0.93;;;;;;;13.83;48.25;94542.66;5135849;27;20473;-55
2021/12/08 09:16:21;;;;;;;0.40;0.37;;;;;;;14.35;47.05;94532.94;5136025;27;20550;-54
2021/12/08 09:18:59;;;;;;;0.30;0.20;;;;;;;14.41;51.08;94480.25;5135796;27;20829;-54
2021/12/08 09:21:33;;;;;;;0.60;0.30;;;;;;;15.18;45.17;94530.88;5136010;27;20421;-54
2021/12/08 09:24:11;;;;;;;1.33;1.33;;;;;;;15.38;44.94;94460.03;5135748;27;20419;-54
2021/12/08 09:26:44;;;;;;;1.90;0.67;;;;;;;14.71;47.36;94427.84;5135306;27;20465;-53
2021/12/08 09:29:16;;;;;;;0.40;0.40;;;;;;;15.26;44.67;94527.41;5135983;27;20419;-55
2021/12/08 09:31:54;;;;;;;0.50;0.40;;;;;;;15.24;46.17;94522.41;5135295;27;20458;-53
2021/12/08 09:34:25;;;;;;;0.50;0.40;;;;;;;15.24;43.92;94527.75;5135963;27;20485;-54
2021/12/08 09:36:58;;;;;;;6.20;0.60;;;;;;;15.80;43.70;94469.78;5135957;27;20418;-54
2021/12/08 09:39:31;;;;;;;0.60;0.60;;;;;;;15.30;45.13;94520.38;5135717;27;20418;-53
2021/12/08 09:42:06;;;;;;;0.60;0.60;;;;;;;14.04;45.38;94531.44;5135613;27;20431;-54
2021/12/08 09:44:38;;;;;;;0.60;0.60;;;;;;;14.59;47.04;94519.94;5135248;27;20473;-53
2021/12/08 09:47:07;;;;;;;0.43;0.40;;;;;;;14.27;45.16;94520.34;5135312;27;20474;-53
2021/12/08 09:49:35;;;;;;;0.40;0.20;;;;;;;15.98;48.72;94510.56;5135329;27;20411;-53
2021/12/08 09:52:08;;;;;;;1.17;0.83;;;;;;;14.15;45.89;94496.19;5134999;27;20833;-53
2021/12/08 09:54:38;;;;;;;1.27;1.17;;;;;;;15.38;51.92;94510.75;5135122;27;20421;-54
2021/12/08 09:57:12;;;;;;;8.20;0.70;;;;;;;15.20;44.69;94502.00;5134895;27;20483;-54
2021/12/08 09:59:46;;;;;;;0.73;0.73;;;;;;;15.65;49.25;94499.69;5135361;27;20490;-53
2021/12/08 10:02:25;;;;;;;0.63;0.53;;;;;;;15.63;44.97;94509.94;5134991;27;20953;-53
2021/12/08 10:04:57;;;;;;;1.07;0.97;;;;;;;13.47;45.74;94491.41;5134591;27;20429;-53
2021/12/08 10:07:28;;;;;;;0.50;0.50;;;;;;;13.30;48.57;94523.28;5134874;27;20470;-54
2021/12/08 10:09:56;;;;;;;0.40;0.40;;;;;;;13.32;48.50;94505.13;5134566;27;20439;-54
2021/12/08 10:12:26;;;;;;;0.50;0.47;;;;;;;13.07;48.75;94529.72;5134802;27;20423;-54
2021/12/08 10:14:57;;;;;;;1.07;0.80;;;;;;;11.84;50.94;94526.56;5134920;27;20426;-55
2021/12/08 10:17:26;;;;;;;0.60;0.50;;;;;;;12.05;55.87;94519.75;5135430;27;20495;-57
2021/12/08 10:20:16;;;;;;;0.40;0.33;;;;;;;13.03;70.09;94515.44;5135019;27;20450;-53
2021/12/08 10:23:07;;;;;;;0.40;0.37;;;;;;;12.11;57.42;94534.50;5134791;27;20435;-53
2021/12/08 10:25:38;;;;;;;0.40;0.30;;;;;;;10.70;60.29;94479.50;5134483;27;20448;-53
2021/12/08 10:28:11;;;;;;;0.40;0.40;;;;;;;11.45;73.02;94527.00;5134432;27;20430;-53
2021/12/08 10:30:46;;;;;;;0.73;0.50;;;;;;;11.67;63.52;94526.31;5134409;27;20426;-54
2021/12/08 10:33:53;;;;;;;0.53;0.53;;;;;;;11.86;69.94;94522.53;5135095;27;20447;-54
2021/12/08 10:39:11;;;;;;;5.43;2.23;;;;;;;10.36;66.36;94526.66;5125495;27;20510;-53
2021/12/08 10:41:56;;;;;;;0.53;0.53;;;;;;;10.44;68.63;94527.88;5134238;27;20522;-53
2021/12/08 10:44:49;;;;;;;3.70;0.63;;;;;;;9.65;71.75;94534.69;5134450;27;20498;-53
2021/12/08 10:47:27;;;;;;;0.30;0.20;;;;;;;9.75;73.33;94529.28;5133981;27;20499;-53
2021/12/08 10:55:39;;;;;;;0.67;0.67;;;;;;;9.01;81.60;94536.91;5133863;27;20468;-52
2021/12/08 10:58:21;;;;;;;0.47;0.47;;;;;;;9.98;88.34;94541.69;5134077;27;20993;-52
2021/12/08 11:00:50;;;;;;;0.40;0.30;;;;;;;8.18;75.16;94255.34;5133853;27;20460;-52
2021/12/08 11:03:18;;;;;;;1.43;0.63;;;;;;;9.48;71.54;94537.00;5133947;27;20446;-52
2021/12/08 11:05:51;;;;;;;0.37;0.27;;;;;;;9.36;72.18;94544.53;5133679;27;20927;-50
2021/12/08 11:08:24;;;;;;;0.37;0.27;;;;;;;8.70;74.41;94505.44;5133769;27;21026;-50
2021/12/08 11:10:57;;;;;;;1.87;1.07;;;;;;;8.92;71.96;94484.66;5133529;27;20458;-49
2021/12/08 11:13:29;;;;;;;0.50;0.40;;;;;;;8.52;71.80;94484.22;5133898;27;20465;-50
2021/12/08 11:16:02;;;;;;;1.03;0.80;;;;;;;8.67;77.90;94442.63;5133150;27;20419;-50
2021/12/08 11:18:32;;;;;;;2.10;0.70;;;;;;;9.80;73.60;94554.88;5133533;27;20491;-50
2021/12/08 11:21:05;;;;;;;0.67;0.67;;;;;;;9.66;71.57;94546.06;5133101;27;20422;-50
2021/12/08 11:23:43;;;;;;;0.83;0.40;;;;;;;10.27;70.36;94554.84;5133556;27;20843;-50
2021/12/08 11:26:18;;;;;;;0.40;0.30;;;;;;;8.81;69.92;94529.94;5133642;27;20549;-50
2021/12/08 11:28:57;;;;;;;0.40;0.30;;;;;;;8.48;73.13;94533.34;5133220;27;20475;-49
2021/12/08 11:31:28;;;;;;;0.40;0.30;;;;;;;8.56;76.60;94540.69;5132818;27;20415;-50
2021/12/08 11:34:00;;;;;;;1.67;1.60;;;;;;;8.71;72.85;94545.88;5133560;27;20501;-49
2021/12/08 11:36:32;;;;;;;0.40;0.40;;;;;;;9.14;76.30;94549.47;5133122;27;20479;-49
2021/12/08 11:39:07;;;;;;;0.40;0.40;;;;;;;9.14;75.48;94546.84;5133108;27;20525;-49
2021/12/08 11:41:39;;;;;;;0.80;0.80;;;;;;;9.11;80.21;94548.19;5132289;27;20454;-49
2021/12/08 11:44:12;;;;;;;0.30;0.30;;;;;;;9.46;73.64;94555.00;5132708;27;20486;-49
2021/12/08 11:47:00;;;;;;;1.57;1.47;;;;;;;9.15;77.64;94575.66;5133124;27;20531;-50
2021/12/08 11:49:29;;;;;;;0.40;0.40;;;;;;;8.44;77.84;94517.28;5133262;27;20458;-49
2021/12/08 11:52:01;;;;;;;0.40;0.30;;;;;;;9.20;78.60;94562.38;5132891;27;20548;-49
2021/12/08 11:54:33;;;;;;;0.60;0.60;;;;;;;8.94;80.57;94559.16;5133028;27;20510;-49
2021/12/08 11:57:10;;;;;;;0.70;0.70;;;;;;;7.86;84.46;94555.06;5132590;27;20415;-49
2021/12/08 12:00:00;;;;;;;18.57;1.57;;;;;;;8.85;81.33;94550.25;5132549;27;20423;-48
2021/12/08 12:02:33;;;;;;;0.40;0.37;;;;;;;9.78;73.26;94557.81;5132625;27;20431;-48
2021/12/08 12:05:03;;;;;;;0.40;0.30;;;;;;;9.93;69.70;94554.19;5132637;27;20999;-49
2021/12/08 12:07:31;;;;;;;0.50;0.40;;;;;;;10.64;67.42;94554.06;5132391;27;20560;-49
2021/12/08 12:10:00;;;;;;;1.77;1.67;;;;;;;11.08;64.20;94549.13;5132673;27;20450;-49
2021/12/08 12:12:30;;;;;;;1.00;1.00;;;;;;;11.74;61.85;94540.81;5133003;27;20431;-49
2021/12/08 12:14:58;;;;;;;3.43;1.20;;;;;;;12.82;56.84;94547.03;5132542;27;20427;-50
2021/12/08 12:17:27;;;;;;;5.83;3.57;;;;;;;12.60;56.56;94547.00;5132568;27;20430;-50
2021/12/08 12:20:03;;;;;;;0.73;0.73;;;;;;;12.50;54.10;94553.31;5132640;28;20487;-50
2021/12/08 12:22:41;;;;;;;0.77;0.77;;;;;;;11.79;57.40;94529.34;5132575;28;20457;-50
2021/12/08 12:25:43;;;;;;;0.60;0.40;;;;;;;12.59;54.54;94551.53;5132955;27;20434;-51
2021/12/08 12:28:46;;;;;;;0.50;0.50;;;;;;;13.46;51.20;94542.31;5136341;27;20516;-53
2021/12/08 12:31:22;;;;;;;0.97;0.97;;;;;;;13.91;50.35;94511.81;5136970;27;20605;-54
2021/12/08 12:33:53;;;;;;;0.40;0.40;;;;;;;15.27;47.26;94512.97;5136518;27;20422;-55